Longreach, Australia
Current Conditions -  °F | °C
As of 3:00 AM on Friday 31 Oct 2014 (Local Time) from YLRE Reporting Station
Clear Clear  
Wind Chill: 84°   Ceiling: Unl
Heat Index: 84°   Visibility: 6mi
Dew Point: 50°   Wind: 20mph
Humidity: 30%   Direction: 30°NNE
Pressure: 29.74"   Gusts: NA
Location:  23.44°S, 144.25°E
Report Text: YLRE 301700Z AUTO 03017KT 9999 // NCD 29/10 Q1007
Loading
Personal Weather Stations






























Interactive Weather Map
Tropical Storm Tracking
New forecast layout! Learn more

10-Day Weather Forecast

Advertisements
Track Severe Weather on mobile